createdAt,value
2022-10-20T00:04:31.603Z,494
2022-10-20T00:09:33.289Z,470.49573
2022-10-20T00:14:35.230Z,475.03448
2022-10-20T00:19:37.380Z,461.64706
2022-10-20T00:24:39.074Z,448.91803
2022-10-20T00:29:41.132Z,470.49573
2022-10-20T00:34:42.854Z,479.65217
2022-10-20T00:39:44.775Z,470.49573
2022-10-20T00:44:46.479Z,479.65217
2022-10-20T00:49:48.482Z,484.35088
2022-10-20T00:54:50.815Z,484.35088
2022-10-20T00:59:52.548Z,504
2022-10-20T01:04:54.494Z,494
2022-10-20T01:09:56.634Z,489.13274
2022-10-20T01:14:58.654Z,514.37037
2022-10-20T01:20:00.472Z,519.70093
2022-10-20T01:25:02.405Z,504
2022-10-20T01:30:04.465Z,509.13761
2022-10-20T01:35:06.137Z,514.37037
2022-10-20T01:40:08.055Z,509.13761
2022-10-20T01:45:09.805Z,514.37037
2022-10-20T01:50:11.398Z,509.13761
2022-10-20T01:55:13.141Z,509.13761
2022-10-20T02:00:14.771Z,504
2022-10-20T02:05:16.396Z,525.13208
2022-10-20T02:10:18.049Z,553.90099
2022-10-20T02:15:19.698Z,530.66667
2022-10-20T02:20:21.331Z,525.13208
2022-10-20T02:25:22.996Z,525.13208
2022-10-20T02:30:24.651Z,536.30769
2022-10-20T02:35:26.281Z,547.92157
2022-10-20T02:40:27.880Z,525.13208
2022-10-20T02:45:29.528Z,519.70093
2022-10-20T02:50:31.174Z,525.13208
2022-10-20T02:55:32.772Z,525.13208
2022-10-20T03:00:34.411Z,542.05825
2022-10-20T03:05:36.192Z,547.92157
2022-10-20T03:10:37.824Z,553.90099
2022-10-20T03:15:39.442Z,560
2022-10-20T03:20:41.049Z,542.05825
2022-10-20T03:25:42.803Z,547.92157
2022-10-20T03:30:44.405Z,553.90099
2022-10-20T03:35:46.905Z,553.90099
2022-10-20T03:40:48.729Z,560
2022-10-20T03:45:50.378Z,572.57143
2022-10-20T03:50:52.022Z,553.90099
2022-10-20T03:55:53.670Z,553.90099
2022-10-20T04:00:55.269Z,547.92157
2022-10-20T04:05:56.776Z,542.05825
2022-10-20T04:10:58.393Z,547.92157
2022-10-20T04:16:00.003Z,530.66667
2022-10-20T04:21:01.650Z,536.30769
2022-10-20T04:26:03.381Z,542.05825
2022-10-20T04:31:04.998Z,536.30769
2022-10-20T04:36:06.602Z,536.30769
2022-10-20T04:41:08.263Z,525.13208
2022-10-20T04:46:09.886Z,525.13208
2022-10-20T04:51:11.484Z,530.66667
2022-10-20T04:56:13.229Z,536.30769
2022-10-20T05:01:14.986Z,547.92157
2022-10-20T05:06:16.721Z,553.90099
2022-10-20T05:11:18.344Z,547.92157
2022-10-20T05:16:20.059Z,560
2022-10-20T05:21:21.777Z,547.92157
2022-10-20T05:26:23.358Z,553.90099
2022-10-20T05:31:25.118Z,560
2022-10-20T05:36:26.772Z,572.57143
2022-10-20T05:41:28.379Z,572.57143
2022-10-20T05:46:29.989Z,579.05155
2022-10-20T05:51:31.618Z,579.05155
2022-10-20T05:56:33.208Z,553.90099
2022-10-20T06:01:34.805Z,566.22222
2022-10-20T06:06:36.437Z,579.05155
2022-10-20T06:11:39.501Z,572.57143
2022-10-20T06:16:41.447Z,585.66667
2022-10-20T06:26:44.886Z,579.05155
2022-10-20T06:31:46.483Z,592.42105
2022-10-20T06:36:48.104Z,592.42105
2022-10-20T06:41:49.748Z,592.42105
2022-10-20T06:46:51.378Z,560
2022-10-20T06:51:53.198Z,572.57143
2022-10-20T06:56:54.775Z,585.66667
2022-10-20T07:01:56.398Z,585.66667
2022-10-20T07:06:58.041Z,579.05155
2022-10-20T07:11:59.644Z,592.42105
2022-10-20T07:17:01.282Z,606.36559
2022-10-20T07:22:03.036Z,599.31915
2022-10-20T07:27:04.673Z,585.66667
2022-10-20T07:32:06.275Z,592.42105
2022-10-20T07:37:07.976Z,606.36559
2022-10-20T07:42:09.687Z,599.31915
2022-10-20T07:47:11.336Z,613.56522
2022-10-20T07:52:12.956Z,599.31915
2022-10-20T07:57:14.611Z,599.31915
2022-10-20T08:02:16.295Z,613.56522
2022-10-20T08:07:17.983Z,620.92308
2022-10-20T08:12:19.700Z,620.92308
2022-10-20T08:17:22.128Z,628.44444
2022-10-20T08:22:23.835Z,636.13483
2022-10-20T08:27:25.503Z,628.44444
2022-10-20T08:32:27.094Z,636.13483
2022-10-20T08:37:28.691Z,628.44444
2022-10-20T08:42:30.289Z,636.13483
2022-10-20T08:47:33.440Z,644
2022-10-20T08:52:35.438Z,644
2022-10-20T08:57:37.116Z,644
2022-10-20T09:02:38.827Z,652.04598
2022-10-20T09:07:40.580Z,652.04598
2022-10-20T09:12:42.201Z,644
2022-10-20T09:17:43.843Z,652.04598
2022-10-20T09:22:45.434Z,660.27907
2022-10-20T09:27:47.036Z,652.04598
2022-10-20T09:32:48.884Z,660.27907
2022-10-20T09:37:50.602Z,660.27907
2022-10-20T09:42:52.267Z,660.27907
2022-10-20T09:47:53.987Z,677.33333
2022-10-20T09:52:55.581Z,668.70588
2022-10-20T09:57:57.281Z,668.70588
2022-10-20T10:02:59.018Z,677.33333
2022-10-20T10:08:00.629Z,686.16867
2022-10-20T10:13:02.339Z,668.70588
2022-10-20T10:18:04.006Z,668.70588
2022-10-20T10:23:05.611Z,668.70588
2022-10-20T10:28:07.444Z,695.21951
2022-10-20T10:33:09.051Z,686.16867
2022-10-20T10:38:10.650Z,677.33333
2022-10-20T10:43:12.326Z,686.16867
2022-10-20T10:48:14.112Z,660.27907
2022-10-20T10:53:15.732Z,652.04598
2022-10-20T10:58:17.380Z,644
2022-10-20T11:03:19.079Z,628.44444
2022-10-20T11:08:20.689Z,636.13483
2022-10-20T11:13:24.558Z,644
2022-10-20T11:18:28.621Z,636.13483
2022-10-20T11:23:30.263Z,644
2022-10-20T11:28:31.950Z,652.04598
2022-10-20T11:33:35.723Z,652.04598
2022-10-20T11:38:39.644Z,660.27907
2022-10-20T11:43:41.373Z,668.70588
2022-10-20T11:48:42.954Z,660.27907
2022-10-20T11:53:44.860Z,660.27907
2022-10-20T11:58:46.518Z,652.04598
2022-10-20T12:03:48.146Z,660.27907
2022-10-20T12:08:49.787Z,660.27907
2022-10-20T12:13:51.442Z,668.70588
2022-10-20T12:18:53.155Z,668.70588
2022-10-20T12:23:54.849Z,660.27907
2022-10-20T12:28:56.442Z,660.27907
2022-10-20T12:33:58.086Z,652.04598
2022-10-20T12:38:59.734Z,660.27907
2022-10-20T12:44:01.349Z,652.04598
2022-10-20T12:49:05.535Z,660.27907
2022-10-20T12:54:10.062Z,644
2022-10-20T12:59:11.667Z,606.36559
2022-10-20T13:04:13.353Z,628.44444
2022-10-20T13:09:14.988Z,592.42105
2022-10-20T13:14:16.618Z,606.36559
2022-10-20T13:19:18.232Z,547.92157
2022-10-20T13:24:19.874Z,536.30769
2022-10-20T13:29:21.522Z,542.05825
2022-10-20T13:34:23.158Z,560
2022-10-20T13:39:24.878Z,606.36559
2022-10-20T13:44:31.196Z,613.56522
2022-10-20T13:49:33.899Z,606.36559
2022-10-20T13:54:35.499Z,599.31915
2022-10-20T13:59:38.626Z,592.42105
2022-10-20T14:04:42.326Z,566.22222
2022-10-20T14:09:47.451Z,585.66667
2022-10-20T14:14:51.056Z,572.57143
2022-10-20T14:19:52.631Z,579.05155
2022-10-20T14:24:54.238Z,572.57143
2022-10-20T14:29:55.982Z,579.05155
2022-10-20T14:39:58.176Z,592.42105
2022-10-20T14:44:59.856Z,592.42105
2022-10-20T14:50:01.611Z,585.66667
2022-10-20T14:55:03.272Z,560
2022-10-20T15:00:05.134Z,536.30769
2022-10-20T15:05:06.810Z,530.66667
2022-10-20T15:10:08.407Z,536.30769
2022-10-20T15:15:10.165Z,536.30769
2022-10-20T15:20:11.853Z,547.92157
2022-10-20T15:25:13.692Z,542.05825
2022-10-20T15:30:15.280Z,560
2022-10-20T15:35:16.933Z,599.31915
2022-10-20T15:40:18.559Z,585.66667
2022-10-20T15:45:20.130Z,579.05155
2022-10-20T15:50:24.225Z,572.57143
2022-10-20T15:55:26.686Z,566.22222
2022-10-20T16:00:28.278Z,572.57143
2022-10-20T16:05:29.886Z,566.22222
2022-10-20T16:10:31.606Z,560
2022-10-20T16:15:33.240Z,553.90099
2022-10-20T16:20:34.865Z,553.90099
2022-10-20T16:25:36.431Z,553.90099
2022-10-20T16:30:38.026Z,553.90099
2022-10-20T16:35:39.701Z,542.05825
2022-10-20T16:40:41.454Z,536.30769
2022-10-20T16:45:43.141Z,542.05825
2022-10-20T16:50:44.813Z,553.90099
2022-10-20T16:55:46.542Z,542.05825
2022-10-20T17:00:48.190Z,547.92157
2022-10-20T17:05:49.858Z,542.05825
2022-10-20T17:10:51.509Z,547.92157
2022-10-20T17:15:53.128Z,547.92157
2022-10-20T17:20:54.733Z,560
2022-10-20T17:25:56.346Z,560
2022-10-20T17:30:57.971Z,560
2022-10-20T17:35:59.564Z,530.66667
2022-10-20T17:41:01.232Z,553.90099
2022-10-20T17:46:02.850Z,560
2022-10-20T17:51:04.536Z,547.92157
2022-10-20T17:56:06.173Z,560
2022-10-20T18:01:07.816Z,553.90099
2022-10-20T18:06:09.515Z,547.92157
2022-10-20T18:11:11.142Z,560
2022-10-20T18:16:12.748Z,553.90099
2022-10-20T18:21:14.341Z,560
2022-10-20T18:26:15.934Z,560
2022-10-20T18:31:17.555Z,553.90099
2022-10-20T18:36:19.217Z,560
2022-10-20T18:41:20.900Z,514.37037
2022-10-20T18:46:22.558Z,509.13761
2022-10-20T18:51:24.190Z,494
2022-10-20T18:56:25.885Z,470.49573
2022-10-20T19:01:27.643Z,475.03448
2022-10-20T19:06:29.336Z,470.49573
2022-10-20T19:11:31.072Z,479.65217
2022-10-20T19:16:32.692Z,475.03448
2022-10-20T19:21:34.399Z,475.03448
2022-10-20T19:26:36.009Z,475.03448
2022-10-20T19:31:37.608Z,484.35088
2022-10-20T19:36:39.246Z,494
2022-10-20T19:41:40.867Z,494
2022-10-20T19:46:42.493Z,489.13274
2022-10-20T19:51:44.150Z,479.65217
2022-10-20T19:56:45.828Z,509.13761
2022-10-20T20:01:47.446Z,479.65217
2022-10-20T20:06:49.177Z,489.13274
2022-10-20T20:11:50.847Z,509.13761
2022-10-20T20:16:52.455Z,494
2022-10-20T20:21:54.094Z,519.70093
2022-10-20T20:26:55.759Z,525.13208
2022-10-20T20:31:57.381Z,509.13761
2022-10-20T20:36:59.039Z,504
2022-10-20T20:42:00.742Z,494
2022-10-20T20:47:02.384Z,530.66667
2022-10-20T20:52:03.958Z,509.13761
2022-10-20T20:57:05.610Z,525.13208
2022-10-20T21:02:07.312Z,536.30769
2022-10-20T21:07:08.940Z,536.30769
2022-10-20T21:17:12.241Z,519.70093
2022-10-20T21:22:13.859Z,536.30769
2022-10-20T21:27:15.461Z,519.70093
2022-10-20T21:32:17.057Z,530.66667
2022-10-20T21:37:18.689Z,553.90099
2022-10-20T21:42:20.314Z,504
2022-10-20T21:47:21.969Z,509.13761
2022-10-20T21:52:23.583Z,566.22222
2022-10-20T21:57:25.320Z,530.66667
2022-10-20T22:02:26.933Z,519.70093
2022-10-20T22:07:28.672Z,585.66667
2022-10-20T22:12:30.424Z,553.90099
2022-10-20T22:17:32.056Z,592.42105
2022-10-20T22:22:33.725Z,579.05155
2022-10-20T22:27:42.308Z,525.13208
2022-10-20T22:32:44.391Z,509.13761
2022-10-20T22:37:45.996Z,479.65217
2022-10-20T22:42:47.683Z,470.49573
2022-10-20T22:47:49.282Z,553.90099
2022-10-20T22:52:50.895Z,475.03448
2022-10-20T22:57:52.591Z,475.03448
2022-10-20T23:02:54.309Z,479.65217
2022-10-20T23:07:55.949Z,470.49573
2022-10-20T23:12:57.819Z,417.84615
2022-10-20T23:17:59.461Z,453.09091
2022-10-20T23:23:01.125Z,475.03448
2022-10-20T23:28:02.837Z,457.33333
2022-10-20T23:33:04.636Z,425.25
2022-10-20T23:38:06.240Z,432.88889
2022-10-20T23:43:07.804Z,429.03937
2022-10-20T23:48:09.514Z,429.03937
2022-10-20T23:53:11.127Z,421.51938
2022-10-20T23:58:12.751Z,444.81301
